Historyczne dane pomiarowe

Dodano dane terminowe – wersja testowa.

Dane z okresu 1951-2019

Wersja bazy: 1.34 [2019-03-16, lista zmian], aktualizacja planowana na 2019-04-15

Dane meteo z obszaru Polski uzyskane na podstawie danych udostępnionych przez Instytut Meteorologii i Gospodarki Wodnej – Państwowy Instytut Badawczy.

 

Wybierz Datę:    

       

TemperaturaWilgotnośćWiatrCiśnienieOpadyŚniegCzas trwania zjawisk
 Stacja t tx tn tng RH VA  wxwx mslp ppp RRR   cm mm wxwxwxwxwxwxwx
1994-08-14 12.4 16.8 9.8 8.1 86.3- 6.0 4.7---- 9.2------------
1994-08-13 15.1 18.6 14.0 13.5 97.3- 5.3 5.7---- 5.8------------
1994-08-12 16.7 22.1 14.9 13.2 96.5- 7.0 1.0---- 1.4------------
1994-08-11 19.9 25.1 16.5 15.2 79.3- 8.0 6.0---- 5.0------------
1994-08-10 20.8 29.0 11.4 9.5 74.8- 6.3 1.0---- 0.0------------
1994-08-09 21.3 28.0 16.0 14.8 72.0- 5.0 1.3---- 0.0------------
1994-08-08 21.1 26.7 16.3 15.7 81.8- 6.7 0.0---- 0.0------------
1994-08-07 23.3 28.4 15.5 14.1 72.0- 4.3 1.0---- 0.8------------
1994-08-06 24.3 31.0 14.0 10.1 69.3- 2.3 1.7---- 0.0------------
1994-08-05 24.2 33.7 12.0 9.9 68.5- 0.3 0.7---- 0.0------------
1994-08-04 22.1 29.7 9.4 7.1 70.5- 0.0 1.0---- 0.0------------
1994-08-03 24.0 29.9 18.4 16.4 66.5- 0.3 2.0---- 0.0------------
1994-08-02 26.1 33.0 17.5 15.6 67.3- 1.7 1.7---- 0.0------------
1994-08-01 30.1 37.6 22.2 17.5 50.8- 1.7 1.7---- 0.0------------
1994-07-31 28.9 37.2 17.9 16.3 49.3- 0.0 2.0---- 0.0------------
1994-07-30 27.2 37.5 14.1 12.6 57.5- 0.3 0.7---- 0.0------------
1994-07-29 26.9 36.6 15.5 14.9 61.8- 1.0 0.3---- 0.0------------
1994-07-28 26.8 35.6 18.5 14.3 66.8- 0.0 0.3---- 0.0------------
1994-07-27 26.2 34.2 19.3 12.7 65.3- 3.3 0.3---- 0.0------------
1994-07-26 26.6 34.9 19.0 14.2 58.0- 4.0 0.0---- 0.0------------
1994-07-25 24.4 33.7 13.4 10.2 58.8- 0.7 1.0---- 0.0------------
1994-07-24 24.0 31.8 13.1 9.7 62.5- 0.3 1.0---- 0.0------------
1994-07-23 23.4 31.0 13.4 8.6 58.5- 0.0 1.3---- 0.0------------
1994-07-22 22.1 30.0 12.5 9.8 60.3- 0.0 1.3---- 0.0------------
1994-07-21 20.4 29.2 8.4 5.6 64.0- 0.0 0.7---- 0.0------------
1994-07-20 18.7 25.3 10.4 7.1 69.0- 0.0 2.3---- 0.0------------
1994-07-19 18.5 23.7 11.4 8.7 66.5- 1.3 2.3---- 0.0------------
1994-07-18 19.4 24.5 13.4 12.5 72.0- 4.7 1.3---- 0.0------------
1994-07-17 21.9 27.5 14.2 13.1 78.0- 4.3 2.0---- 0.0------------
1994-07-16 22.6 27.3 16.5 14.6 79.3- 4.3 0.7---- 0.2------------
1994-07-15 25.1 31.6 18.1 14.7 69.3- 1.3 2.3---- 0.0------------
1994-07-14 24.5 32.0 14.0 10.5 59.8- 0.3 0.7---- 0.0------------
1994-07-13 23.5 30.3 16.5 12.1 63.5- 0.3 2.0---- 0.0------------
1994-07-12 23.0 28.6 15.5 13.1 69.0- 0.0 2.0---- 0.0------------
1994-07-11 22.0 28.2 12.9 10.5 70.5- 0.3 1.3---- 0.0------------
1994-07-10 19.9 25.8 13.0 10.4 80.5- 1.7 2.3---- 1.7------------
1994-07-09 17.4 21.8 13.5 12.3 85.5- 7.0 2.0---- 1.3------------
1994-07-08 13.8 16.8 12.7 13.5 98.8- 8.0 4.3---- 14.1------------
1994-07-07 17.8 26.4 9.4 6.4 76.5- 4.0 1.7---- 25.7------------
1994-07-06 20.7 25.7 15.0 12.6 70.0- 1.7 1.3---- 0.0------------
1994-07-05 18.4 24.4 13.9 12.6 82.0- 7.7 2.0---- 0.0------------
1994-07-04 22.3 29.2 13.9 10.1 55.3- 0.7 2.3---- 0.0------------
1994-07-03 21.2 28.5 12.4 8.1 58.8- 0.0 3.7---- 0.0------------
1994-07-02 19.1 25.6 9.9 5.6 63.5- 0.0 2.7---- 0.0------------
1994-07-01 17.3 23.9 7.4 5.0 76.0- 1.0 0.7---- 0.0------------
1994-06-30 19.4 27.5 17.5 16.6 80.0- 3.0 2.3---- 0.0------------
1994-06-29 26.0 33.8 17.9 14.2 69.0- 3.0 2.7---- 1.1------------
1994-06-28 23.1 29.5 14.6 12.7 67.5- 0.3 0.7---- 0.0------------
1994-06-27 23.9 30.6 16.9 13.5 75.3- 2.7 1.0---- 0.0------------
1994-06-26 23.4 31.3 11.0 6.6 64.8- 0.0 0.3---- 0.0------------
1994-06-25 17.7 25.1 7.0 2.1 65.0- 0.0 1.7---- 0.0------------
1994-06-24 14.4 20.7 4.8 0.5 70.8- 0.3 2.3---- 0.0------------
1994-06-23 16.2 21.5 11.6 9.5 57.0- 1.7 7.3---- 0.0------------
1994-06-22 19.4 23.6 16.3 14.1 77.0- 5.3 5.0---- 0.0------------
1994-06-21 16.2 23.4 4.5 3.5 76.8- 2.7 0.3---- 0.3------------
1994-06-20 17.0 20.4 13.3 12.1 69.3- 1.7 3.3---- 0.0------------
1994-06-19 16.3 22.2 11.6 11.1 84.0- 8.0 4.0---- 0.0------------
1994-06-18 11.6 18.9 3.1 0.9 87.5- 7.3 1.3---- 6.2------------
1994-06-17 10.4 14.6 6.0 4.0 79.0- 4.3 3.7---- 0.0------------
1994-06-16 11.5 15.5 10.3 9.2 89.3- 7.7 5.7---- 2.7------------
245.8 ms

 

Źródłem pochodzenia danych jest Instytut Meteorologii i Gospodarki Wodnej – Państwowy Instytut Badawczy. Dane Instytutu Meteorologii i Gospodarki Wodnej – Państwowego Instytutu Badawczego zostały przetworzone.

Dane źródłowe można odnaleźć na stronie https://dane.imgw.pl